Time;durP1;ratioP1;P1;durP2;ratioP2;P2;SDS_P1;SDS_P2;PMS_P1;PMS_P2;Temp;Humidity;BMP_temperature;BMP_pressure;BME280_temperature;BME280_humidity;BME280_pressure;Samples;Min_cycle;Max_cycle;Signal;HPM_P1;HPM_P2
2023/04/21 00:01:26;;;;;;;3.97;3.60;;;;;;;;;;5062791;28;20300;-84
2023/04/21 00:03:54;;;;;;;3.73;3.43;;;;;;;;;;5052453;28;20236;-84
2023/04/21 00:06:21;;;;;;;3.70;3.40;;;;;;;;;;5062140;28;20255;-84
2023/04/21 00:08:49;;;;;;;3.80;3.43;;;;;;;;;;5053768;28;20205;-84
2023/04/21 00:11:16;;;;;;;3.37;3.17;;;;;;;;;;5070638;28;20212;-85
2023/04/21 00:13:43;;;;;;;4.93;3.23;;;;;;;;;;5057764;28;20214;-83
2023/04/21 00:16:10;;;;;;;3.57;3.27;;;;;;;;;;5061234;28;20327;-83
2023/04/21 00:18:37;;;;;;;3.97;3.57;;;;;;;;;;5054432;28;20684;-84
2023/04/21 00:21:04;;;;;;;4.33;3.27;;;;;;;;;;5055203;28;20202;-84
2023/04/21 00:23:31;;;;;;;3.77;3.43;;;;;;;;;;5068025;28;20715;-84
2023/04/21 00:26:01;;;;;;;3.13;2.93;;;;;;;;;;5055167;28;20691;-83
2023/04/21 00:28:28;;;;;;;4.43;4.03;;;;;;;;;;5072282;28;20205;-83
2023/04/21 00:30:55;;;;;;;3.47;3.17;;;;;;;;;;5074482;28;20216;-84
2023/04/21 00:33:22;;;;;;;4.00;3.70;;;;;;;;;;5069917;28;20230;-83
2023/04/21 00:35:48;;;;;;;3.47;3.27;;;;;;;;;;5066159;28;20209;-84
2023/04/21 00:38:15;;;;;;;3.47;3.10;;;;;;;;;;5061007;28;20239;-84
2023/04/21 00:40:42;;;;;;;3.90;3.60;;;;;;;;;;5074583;28;20209;-83
2023/04/21 00:43:10;;;;;;;4.10;3.70;;;;;;;;;;5060979;28;20661;-83
2023/04/21 00:45:37;;;;;;;4.97;4.53;;;;;;;;;;5061796;28;20684;-83
2023/04/21 00:48:05;;;;;;;4.60;4.10;;;;;;;;;;5060205;28;20208;-84
2023/04/21 00:50:32;;;;;;;3.90;3.53;;;;;;;;;;5062052;28;20206;-84
2023/04/21 00:52:59;;;;;;;7.83;3.90;;;;;;;;;;5067723;28;20209;-84
2023/04/21 00:55:26;;;;;;;5.00;4.60;;;;;;;;;;5066954;28;20216;-83
2023/04/21 00:57:53;;;;;;;5.60;4.50;;;;;;;;;;5068166;28;20214;-84
2023/04/21 01:00:22;;;;;;;5.23;4.73;;;;;;;;;;5067454;28;20303;-84
2023/04/21 01:02:48;;;;;;;4.50;4.10;;;;;;;;;;5074279;28;20653;-87
2023/04/21 01:05:17;;;;;;;4.20;3.90;;;;;;;;;;5073735;28;20782;-85
2023/04/21 01:07:44;;;;;;;4.53;4.03;;;;;;;;;;5048274;28;20216;-83
2023/04/21 01:10:11;;;;;;;4.40;3.57;;;;;;;;;;5060207;28;20218;-84
2023/04/21 01:12:44;;;;;;;4.67;4.27;;;;;;;;;;5061352;28;20216;-84
2023/04/21 01:15:11;;;;;;;4.70;4.27;;;;;;;;;;5060701;28;20206;-83
2023/04/21 01:17:40;;;;;;;4.77;4.30;;;;;;;;;;5065246;28;20210;-83
2023/04/21 01:20:09;;;;;;;6.40;4.80;;;;;;;;;;5067187;28;20211;-83
2023/04/21 01:22:39;;;;;;;5.60;4.43;;;;;;;;;;5062826;28;20224;-83
2023/04/21 01:25:06;;;;;;;5.40;4.90;;;;;;;;;;5060506;28;20609;-84
2023/04/21 01:27:33;;;;;;;5.37;4.87;;;;;;;;;;5063958;28;20289;-83
2023/04/21 01:30:00;;;;;;;7.40;5.37;;;;;;;;;;5065871;28;20210;-83
2023/04/21 01:32:28;;;;;;;5.30;4.70;;;;;;;;;;5064214;28;20210;-83
2023/04/21 01:34:56;;;;;;;4.63;4.23;;;;;;;;;;5073293;28;20251;-83
2023/04/21 01:37:24;;;;;;;3.73;3.43;;;;;;;;;;5073645;28;20602;-84
2023/04/21 01:39:54;;;;;;;4.13;3.83;;;;;;;;;;5055469;28;20216;-84
2023/04/21 01:42:22;;;;;;;4.73;4.27;;;;;;;;;;5053192;28;20202;-84
2023/04/21 01:44:49;;;;;;;4.53;4.13;;;;;;;;;;5072005;28;20587;-83
2023/04/21 01:47:16;;;;;;;4.17;3.87;;;;;;;;;;5073244;28;20255;-83
2023/04/21 01:49:43;;;;;;;4.50;3.77;;;;;;;;;;5073175;28;20594;-84
2023/04/21 01:52:10;;;;;;;4.67;4.27;;;;;;;;;;5061201;28;20435;-83
2023/04/21 01:54:37;;;;;;;5.63;4.60;;;;;;;;;;5047526;28;20206;-84
2023/04/21 01:57:05;;;;;;;4.07;3.67;;;;;;;;;;5058229;28;20201;-83
2023/04/21 01:59:32;;;;;;;5.10;4.57;;;;;;;;;;5053754;28;20593;-84
2023/04/21 02:01:59;;;;;;;5.57;4.13;;;;;;;;;;5066045;28;20603;-84
2023/04/21 02:04:25;;;;;;;4.33;3.93;;;;;;;;;;5046124;28;20619;-84
2023/04/21 02:06:52;;;;;;;4.37;4.03;;;;;;;;;;5072672;28;20201;-84
2023/04/21 02:09:19;;;;;;;4.47;4.07;;;;;;;;;;5066348;28;20263;-83
2023/04/21 02:11:46;;;;;;;4.80;4.40;;;;;;;;;;5053070;28;20202;-85
2023/04/21 02:14:14;;;;;;;5.57;4.00;;;;;;;;;;5072559;28;20205;-84
2023/04/21 02:16:41;;;;;;;5.00;4.60;;;;;;;;;;5059578;28;20198;-84
2023/04/21 02:19:08;;;;;;;4.93;4.53;;;;;;;;;;5065224;28;20202;-83
2023/04/21 02:21:35;;;;;;;4.87;4.23;;;;;;;;;;5065935;28;20204;-83
2023/04/21 02:24:02;;;;;;;4.17;3.87;;;;;;;;;;5051729;28;20247;-84
2023/04/21 02:26:28;;;;;;;3.83;3.53;;;;;;;;;;5059711;28;20263;-84
2023/04/21 02:28:55;;;;;;;4.70;4.17;;;;;;;;;;5057996;28;20675;-84
2023/04/21 02:31:23;;;;;;;4.27;3.97;;;;;;;;;;5059949;28;20263;-85
2023/04/21 02:33:50;;;;;;;3.87;3.57;;;;;;;;;;5058812;28;20208;-84
2023/04/21 02:36:17;;;;;;;4.17;3.87;;;;;;;;;;5072647;28;20655;-84
2023/04/21 02:38:43;;;;;;;4.50;3.90;;;;;;;;;;5058780;28;20200;-84
2023/04/21 02:41:10;;;;;;;4.17;3.83;;;;;;;;;;5059165;28;20256;-84
2023/04/21 02:43:37;;;;;;;4.30;3.50;;;;;;;;;;5065351;28;20618;-83
2023/04/21 02:46:06;;;;;;;3.83;3.53;;;;;;;;;;5052255;28;20251;-84
2023/04/21 02:48:34;;;;;;;4.43;4.03;;;;;;;;;;5053525;28;20202;-84
2023/04/21 02:51:01;;;;;;;4.00;3.60;;;;;;;;;;5059237;28;20229;-84
2023/04/21 02:53:28;;;;;;;4.20;3.90;;;;;;;;;;5072203;28;20212;-84
2023/04/21 02:55:55;;;;;;;4.90;3.17;;;;;;;;;;5056308;28;20210;-84
2023/04/21 02:58:22;;;;;;;4.20;3.90;;;;;;;;;;5051170;28;20213;-84
2023/04/21 03:00:49;;;;;;;3.80;3.50;;;;;;;;;;5062403;28;20220;-84
2023/04/21 03:03:15;;;;;;;3.53;3.17;;;;;;;;;;5065337;28;20225;-85
2023/04/21 03:05:43;;;;;;;4.17;3.60;;;;;;;;;;5062460;28;20989;-84
2023/04/21 03:08:10;;;;;;;5.63;3.27;;;;;;;;;;5068045;28;20201;-84
2023/04/21 03:10:37;;;;;;;4.13;3.83;;;;;;;;;;5062696;28;20287;-85
2023/04/21 03:13:04;;;;;;;3.83;3.03;;;;;;;;;;5071786;28;20213;-86
2023/04/21 03:15:30;;;;;;;4.03;3.63;;;;;;;;;;5057285;28;20210;-82
2023/04/21 03:17:57;;;;;;;3.67;3.27;;;;;;;;;;5071714;28;20208;-82
2023/04/21 03:20:24;;;;;;;3.27;3.00;;;;;;;;;;5070351;28;20205;-87
2023/04/21 03:22:54;;;;;;;3.90;3.60;;;;;;;;;;5052205;28;20213;-85
2023/04/21 03:25:21;;;;;;;4.40;3.83;;;;;;;;;;5063349;28;20232;-85
2023/04/21 03:27:48;;;;;;;3.93;3.63;;;;;;;;;;5048941;28;20209;-85
2023/04/21 03:30:16;;;;;;;3.37;3.03;;;;;;;;;;5069010;28;20228;-85
2023/04/21 03:32:42;;;;;;;3.80;3.40;;;;;;;;;;5060874;28;20287;-85
2023/04/21 03:35:09;;;;;;;5.50;3.43;;;;;;;;;;5068775;28;20210;-85
2023/04/21 03:37:36;;;;;;;4.33;3.93;;;;;;;;;;5051596;28;20267;-84
2023/04/21 03:40:06;;;;;;;5.17;4.07;;;;;;;;;;5057416;28;20205;-85
2023/04/21 03:42:33;;;;;;;4.43;4.03;;;;;;;;;;5069994;28;20217;-84
2023/04/21 03:45:02;;;;;;;9.77;8.77;;;;;;;;;;5060282;28;20233;-85
2023/04/21 03:47:28;;;;;;;7.37;6.63;;;;;;;;;;5056687;28;20291;-85
2023/04/21 03:49:55;;;;;;;8.10;7.27;;;;;;;;;;5064403;28;20209;-85
2023/04/21 03:52:22;;;;;;;8.37;7.60;;;;;;;;;;5051175;28;20209;-84
2023/04/21 03:54:49;;;;;;;6.73;5.63;;;;;;;;;;5071160;28;20217;-85
2023/04/21 03:57:17;;;;;;;8.70;7.90;;;;;;;;;;5071291;28;20702;-85
2023/04/21 03:59:44;;;;;;;14.63;7.20;;;;;;;;;;5071047;28;20735;-85
2023/04/21 04:02:11;;;;;;;10.90;8.57;;;;;;;;;;5071229;28;20205;-85
2023/04/21 04:04:38;;;;;;;9.27;8.20;;;;;;;;;;5063833;28;20217;-85
2023/04/21 04:07:06;;;;;;;9.87;7.97;;;;;;;;;;5051125;28;20680;-84
2023/04/21 04:09:33;;;;;;;6.90;6.20;;;;;;;;;;5051724;28;20203;-84
2023/04/21 04:12:02;;;;;;;7.30;6.70;;;;;;;;;;5053446;28;20339;-86
2023/04/21 04:14:30;;;;;;;8.10;7.33;;;;;;;;;;5071032;28;20205;-86
2023/04/21 04:16:58;;;;;;;9.93;8.53;;;;;;;;;;5058246;28;20209;-88
2023/04/21 04:19:30;;;;;;;13.40;8.57;;;;;;;;;;5071418;28;20259;-87
2023/04/21 04:21:58;;;;;;;7.93;6.77;;;;;;;;;;5066013;28;20198;-88
2023/04/21 04:24:25;;;;;;;6.37;5.77;;;;;;;;;;5053556;28;20228;-86
2023/04/21 04:26:53;;;;;;;8.23;7.43;;;;;;;;;;5051672;28;20296;-86
2023/04/21 04:29:21;;;;;;;7.10;6.43;;;;;;;;;;5064665;28;20217;-88
2023/04/21 04:31:50;;;;;;;8.10;7.30;;;;;;;;;;5051703;28;20214;-86
2023/04/21 04:34:16;;;;;;;8.17;6.50;;;;;;;;;;5052312;28;20275;-87
2023/04/21 04:36:43;;;;;;;6.47;5.20;;;;;;;;;;5064221;28;20198;-87
2023/04/21 04:39:11;;;;;;;6.40;5.80;;;;;;;;;;5052537;28;20206;-87
2023/04/21 04:41:38;;;;;;;6.40;5.77;;;;;;;;;;5063656;28;20212;-87
2023/04/21 04:44:05;;;;;;;6.93;5.90;;;;;;;;;;5064164;28;20225;-87
2023/04/21 04:46:32;;;;;;;5.47;5.07;;;;;;;;;;5051362;28;20198;-87
2023/04/21 04:49:00;;;;;;;5.40;5.00;;;;;;;;;;5050913;28;20285;-87
2023/04/21 04:51:29;;;;;;;7.53;6.40;;;;;;;;;;5064578;28;20206;-88
2023/04/21 04:53:56;;;;;;;8.33;7.33;;;;;;;;;;5064456;28;20292;-87
2023/04/21 04:56:23;;;;;;;11.93;10.30;;;;;;;;;;5071680;28;20652;-87
2023/04/21 04:58:49;;;;;;;9.70;8.73;;;;;;;;;;5057554;28;20214;-87
2023/04/21 05:01:17;;;;;;;10.90;8.07;;;;;;;;;;5051156;28;20228;-87
2023/04/21 05:03:46;;;;;;;22.07;18.30;;;;;;;;;;5067221;28;20647;-87
2023/04/21 05:06:14;;;;;;;12.50;11.40;;;;;;;;;;5067206;28;20653;-86
2023/04/21 05:08:41;;;;;;;7.43;6.23;;;;;;;;;;5068128;28;20259;-87
2023/04/21 05:11:08;;;;;;;6.03;5.43;;;;;;;;;;5054745;28;20229;-87
2023/04/21 05:13:35;;;;;;;6.57;5.87;;;;;;;;;;5054973;28;20272;-86
2023/04/21 05:16:02;;;;;;;6.93;6.33;;;;;;;;;;5054717;28;20267;-87
2023/04/21 05:18:28;;;;;;;6.00;5.50;;;;;;;;;;5056562;28;20218;-86
2023/04/21 05:20:56;;;;;;;6.67;6.07;;;;;;;;;;5065831;28;20750;-86
2023/04/21 05:23:24;;;;;;;14.33;12.17;;;;;;;;;;5070196;28;20391;-87
2023/04/21 05:25:51;;;;;;;11.40;10.30;;;;;;;;;;5074116;28;20248;-88
2023/04/21 05:28:17;;;;;;;10.70;9.77;;;;;;;;;;5061570;28;20591;-86
2023/04/21 05:30:44;;;;;;;9.23;8.37;;;;;;;;;;5074475;28;20262;-87
2023/04/21 05:33:11;;;;;;;7.80;6.90;;;;;;;;;;5057711;28;20202;-87
2023/04/21 05:35:38;;;;;;;8.40;6.53;;;;;;;;;;5063826;28;20247;-87
2023/04/21 05:38:04;;;;;;;7.70;7.00;;;;;;;;;;5071402;28;20571;-87
2023/04/21 05:40:33;;;;;;;9.13;8.33;;;;;;;;;;5054354;28;20210;-87
2023/04/21 05:42:59;;;;;;;18.43;16.53;;;;;;;;;;5053989;28;20198;-87
2023/04/21 05:45:26;;;;;;;8.30;7.50;;;;;;;;;;5064950;28;20233;-89
2023/04/21 05:47:53;;;;;;;5.80;4.77;;;;;;;;;;5060914;28;20258;-87
2023/04/21 05:50:20;;;;;;;4.80;4.40;;;;;;;;;;5063063;28;20206;-87
2023/04/21 05:52:47;;;;;;;6.63;5.60;;;;;;;;;;5067229;28;20260;-87
2023/04/21 05:55:13;;;;;;;4.87;4.47;;;;;;;;;;5053515;28;20202;-87
2023/04/21 05:57:41;;;;;;;7.43;6.60;;;;;;;;;;5071114;28;20201;-87
2023/04/21 06:00:09;;;;;;;11.57;9.73;;;;;;;;;;5062903;28;20217;-87
2023/04/21 06:02:36;;;;;;;9.70;8.70;;;;;;;;;;5067185;28;20263;-87
2023/04/21 06:05:03;;;;;;;7.07;5.70;;;;;;;;;;5053789;28;20233;-87
2023/04/21 06:07:30;;;;;;;6.23;5.63;;;;;;;;;;5072780;28;20598;-87
2023/04/21 06:09:57;;;;;;;10.17;7.67;;;;;;;;;;5060985;28;20202;-88
2023/04/21 06:12:24;;;;;;;10.17;8.80;;;;;;;;;;5059989;28;20296;-87
2023/04/21 06:14:56;;;;;;;6.40;5.80;;;;;;;;;;5072937;28;20213;-87
2023/04/21 06:17:23;;;;;;;5.70;5.20;;;;;;;;;;5033909;28;20237;-87
2023/04/21 06:19:52;;;;;;;7.17;6.47;;;;;;;;;;5047336;28;20673;-87
2023/04/21 06:22:19;;;;;;;6.00;5.43;;;;;;;;;;5061117;28;20235;-87
2023/04/21 06:24:46;;;;;;;5.00;4.50;;;;;;;;;;5059835;28;20507;-88
2023/04/21 06:27:13;;;;;;;3.87;3.57;;;;;;;;;;5073367;28;20213;-87
2023/04/21 06:29:41;;;;;;;4.93;4.50;;;;;;;;;;5059694;28;20251;-87
2023/04/21 06:32:09;;;;;;;5.20;4.23;;;;;;;;;;5065820;28;20207;-87
2023/04/21 06:34:36;;;;;;;4.40;4.10;;;;;;;;;;5066400;28;20206;-87
2023/04/21 06:37:03;;;;;;;4.40;4.00;;;;;;;;;;5061984;28;20581;-87
2023/04/21 06:39:30;;;;;;;4.70;4.30;;;;;;;;;;5072890;28;20282;-88
2023/04/21 06:41:57;;;;;;;5.20;4.80;;;;;;;;;;5072847;28;20680;-92
2023/04/21 06:44:24;;;;;;;5.10;4.60;;;;;;;;;;5073025;28;20221;-87
2023/04/21 06:46:51;;;;;;;4.77;4.37;;;;;;;;;;5063849;28;20251;-88
2023/04/21 06:49:19;;;;;;;5.47;4.13;;;;;;;;;;5068965;28;20713;-88
2023/04/21 06:51:46;;;;;;;4.13;3.77;;;;;;;;;;5073136;28;20274;-87
2023/04/21 06:54:12;;;;;;;5.33;4.67;;;;;;;;;;5073142;28;20295;-88
2023/04/21 06:56:41;;;;;;;5.13;4.63;;;;;;;;;;5073002;28;20212;-87
2023/04/21 06:59:08;;;;;;;4.10;3.80;;;;;;;;;;5069789;28;20299;-88
2023/04/21 07:01:35;;;;;;;4.40;4.00;;;;;;;;;;5053142;28;20251;-88
2023/04/21 07:04:02;;;;;;;4.33;3.93;;;;;;;;;;5068960;28;20251;-88
2023/04/21 07:06:31;;;;;;;4.33;3.93;;;;;;;;;;5072925;28;20594;-88
2023/04/21 07:08:58;;;;;;;3.93;3.63;;;;;;;;;;5059624;28;20259;-89
2023/04/21 07:11:27;;;;;;;5.43;3.60;;;;;;;;;;5072427;28;20268;-87
2023/04/21 07:13:54;;;;;;;5.50;3.73;;;;;;;;;;5072293;28;20201;-88
2023/04/21 07:16:21;;;;;;;4.17;3.73;;;;;;;;;;5061726;28;20220;-87
2023/04/21 07:18:47;;;;;;;4.23;3.83;;;;;;;;;;5065774;28;20206;-88
2023/04/21 07:21:14;;;;;;;3.90;3.50;;;;;;;;;;5052768;28;20244;-88
2023/04/21 07:23:42;;;;;;;5.80;3.90;;;;;;;;;;5052315;28;20631;-88
2023/04/21 07:26:09;;;;;;;4.73;4.30;;;;;;;;;;5052301;28;20657;-87
2023/04/21 07:28:36;;;;;;;3.87;3.57;;;;;;;;;;5070861;28;20668;-88
2023/04/21 07:31:03;;;;;;;4.10;3.70;;;;;;;;;;5061244;28;20213;-87
2023/04/21 07:33:30;;;;;;;4.00;3.60;;;;;;;;;;5057360;28;20212;-88
2023/04/21 07:35:56;;;;;;;3.50;3.20;;;;;;;;;;5072846;28;20218;-88
2023/04/21 07:38:23;;;;;;;3.80;3.50;;;;;;;;;;5072160;28;20207;-87
2023/04/21 07:40:52;;;;;;;3.47;3.27;;;;;;;;;;5071851;28;20198;-88
2023/04/21 07:43:19;;;;;;;3.70;3.40;;;;;;;;;;5058232;28;20250;-87
2023/04/21 07:45:46;;;;;;;3.40;3.10;;;;;;;;;;5071791;28;20720;-87
2023/04/21 07:48:13;;;;;;;4.83;4.40;;;;;;;;;;5071755;28;20741;-87
2023/04/21 07:50:40;;;;;;;4.87;4.37;;;;;;;;;;5059624;28;20589;-87
2023/04/21 07:53:07;;;;;;;3.53;3.23;;;;;;;;;;5058744;28;20245;-87
2023/04/21 07:55:35;;;;;;;5.03;3.07;;;;;;;;;;5071990;28;20210;-89
2023/04/21 07:58:04;;;;;;;8.03;3.77;;;;;;;;;;5071697;28;20203;-88
2023/04/21 08:00:33;;;;;;;7.73;4.30;;;;;;;;;;5058025;28;20215;-88
2023/04/21 08:03:00;;;;;;;3.60;3.30;;;;;;;;;;5059736;28;20231;-88
2023/04/21 08:05:28;;;;;;;4.10;3.80;;;;;;;;;;5071659;28;20233;-87
2023/04/21 08:07:54;;;;;;;4.43;4.03;;;;;;;;;;5071780;28;20235;-88
2023/04/21 08:10:21;;;;;;;4.73;4.23;;;;;;;;;;5058535;28;20215;-87
2023/04/21 08:12:50;;;;;;;3.70;3.40;;;;;;;;;;5071834;28;20215;-87
2023/04/21 08:15:19;;;;;;;5.70;2.73;;;;;;;;;;5056169;28;20270;-87
2023/04/21 08:17:46;;;;;;;4.80;3.40;;;;;;;;;;5052058;28;20227;-87
2023/04/21 08:20:13;;;;;;;3.57;3.27;;;;;;;;;;5067569;28;20219;-87
2023/04/21 08:22:40;;;;;;;6.00;3.47;;;;;;;;;;5062693;28;20212;-87
2023/04/21 08:25:08;;;;;;;4.33;3.40;;;;;;;;;;5064870;28;20253;-88
2023/04/21 08:27:37;;;;;;;8.07;4.53;;;;;;;;;;5051783;28;20201;-87
2023/04/21 08:30:08;;;;;;;6.00;4.07;;;;;;;;;;5054975;28;20212;-87
2023/04/21 08:32:36;;;;;;;3.97;3.60;;;;;;;;;;5071868;28;20205;-88
2023/04/21 08:35:03;;;;;;;4.50;3.73;;;;;;;;;;5058400;28;20201;-87
2023/04/21 08:37:30;;;;;;;4.53;2.80;;;;;;;;;;5071528;28;20212;-87
2023/04/21 08:39:57;;;;;;;3.77;3.47;;;;;;;;;;5057138;28;20210;-88
2023/04/21 08:42:23;;;;;;;3.63;3.30;;;;;;;;;;5067224;28;20289;-87
2023/04/21 08:44:50;;;;;;;4.43;3.40;;;;;;;;;;5074617;28;20225;-88
2023/04/21 08:47:17;;;;;;;3.03;2.63;;;;;;;;;;5075407;28;20205;-87
2023/04/21 08:49:46;;;;;;;3.30;2.83;;;;;;;;;;5075058;28;20205;-87
2023/04/21 08:52:13;;;;;;;3.27;3.07;;;;;;;;;;5075579;28;20212;-87
2023/04/21 08:54:40;;;;;;;2.83;2.40;;;;;;;;;;5061591;28;20217;-87
2023/04/21 08:57:07;;;;;;;8.47;3.53;;;;;;;;;;5074964;28;20219;-87
2023/04/21 08:59:34;;;;;;;5.60;4.17;;;;;;;;;;5061953;28;20734;-88
2023/04/21 09:02:10;;;;;;;3.80;3.50;;;;;;;;;;5075183;28;20213;-87
2023/04/21 09:04:41;;;;;;;3.10;2.90;;;;;;;;;;5066210;28;20209;-87
2023/04/21 09:07:09;;;;;;;3.57;3.27;;;;;;;;;;5068389;28;20200;-88
2023/04/21 09:09:52;;;;;;;3.43;2.47;;;;;;;;;;5064674;28;20211;-87
2023/04/21 09:12:19;;;;;;;5.73;4.20;;;;;;;;;;5069566;28;20209;-87
2023/04/21 09:14:46;;;;;;;6.50;2.80;;;;;;;;;;5067022;28;20652;-88
2023/04/21 09:17:15;;;;;;;4.87;3.27;;;;;;;;;;5056728;28;20209;-88
2023/04/21 09:19:41;;;;;;;5.23;2.90;;;;;;;;;;5067134;28;20259;-88
2023/04/21 09:22:10;;;;;;;3.60;2.80;;;;;;;;;;5055964;28;20279;-87
2023/04/21 09:24:36;;;;;;;2.87;2.67;;;;;;;;;;5067420;28;20233;-87
2023/04/21 09:27:04;;;;;;;5.17;3.90;;;;;;;;;;5054473;28;20233;-88
2023/04/21 09:29:31;;;;;;;4.73;2.77;;;;;;;;;;5068169;28;20213;-87
2023/04/21 09:31:58;;;;;;;5.03;2.50;;;;;;;;;;5061647;28;20637;-87
2023/04/21 09:34:26;;;;;;;3.40;3.03;;;;;;;;;;5060667;28;20296;-88
2023/04/21 09:36:59;;;;;;;5.37;4.83;;;;;;;;;;5061632;28;21130;-88
2023/04/21 09:39:29;;;;;;;4.97;3.67;;;;;;;;;;5074301;28;20729;-87
2023/04/21 09:41:56;;;;;;;3.30;3.00;;;;;;;;;;5065229;28;20701;-88
2023/04/21 09:44:23;;;;;;;5.07;3.30;;;;;;;;;;5056923;28;20206;-88
2023/04/21 09:46:50;;;;;;;5.23;2.80;;;;;;;;;;5073851;28;20225;-88
2023/04/21 09:49:18;;;;;;;3.43;2.73;;;;;;;;;;5072557;28;20296;-87
2023/04/21 09:51:48;;;;;;;3.87;2.47;;;;;;;;;;5065336;28;20213;-88
2023/04/21 09:54:17;;;;;;;4.63;2.97;;;;;;;;;;5069580;28;20293;-88
2023/04/21 09:56:49;;;;;;;4.63;2.70;;;;;;;;;;5064926;28;20209;-88
2023/04/21 09:59:23;;;;;;;3.40;2.10;;;;;;;;;;5067624;28;20212;-88
2023/04/21 10:01:50;;;;;;;2.90;2.40;;;;;;;;;;5065536;28;20220;-88
2023/04/21 10:04:18;;;;;;;2.50;2.30;;;;;;;;;;5073736;28;20208;-88
2023/04/21 10:06:48;;;;;;;7.07;2.40;;;;;;;;;;5073843;28;20237;-88
2023/04/21 10:09:16;;;;;;;3.13;2.60;;;;;;;;;;5060956;28;20223;-89
2023/04/21 10:11:45;;;;;;;5.70;2.70;;;;;;;;;;5073993;28;20270;-89
2023/04/21 10:14:11;;;;;;;3.63;2.80;;;;;;;;;;5067733;28;20210;-88
2023/04/21 10:16:38;;;;;;;4.83;2.70;;;;;;;;;;5066594;28;20205;-88
2023/04/21 10:19:22;;;;;;;3.63;3.33;;;;;;;;;;5074563;28;20220;-87
2023/04/21 10:21:50;;;;;;;5.67;3.17;;;;;;;;;;5073322;28;20270;-88
2023/04/21 10:24:17;;;;;;;5.50;2.83;;;;;;;;;;5064613;28;20648;-87
2023/04/21 10:26:45;;;;;;;4.53;2.80;;;;;;;;;;5069713;28;20228;-88
2023/04/21 10:29:14;;;;;;;3.60;2.90;;;;;;;;;;5073011;28;20201;-88
2023/04/21 10:31:51;;;;;;;4.07;3.67;;;;;;;;;;5073255;28;20283;-87
2023/04/21 10:34:22;;;;;;;5.63;2.83;;;;;;;;;;5062070;28;20217;-88
2023/04/21 10:37:07;;;;;;;3.17;2.37;;;;;;;;;;5059156;28;20201;-88
2023/04/21 10:39:35;;;;;;;7.50;2.67;;;;;;;;;;5071513;28;20695;-93
2023/04/21 10:42:35;;;;;;;3.60;2.83;;;;;;;;;;5062752;28;20236;-87
2023/04/21 10:45:09;;;;;;;3.00;2.53;;;;;;;;;;5073240;28;20201;-88
2023/04/21 10:47:39;;;;;;;4.77;2.93;;;;;;;;;;5060223;28;20668;-88
2023/04/21 10:50:14;;;;;;;3.20;2.90;;;;;;;;;;5064388;28;20208;-88
2023/04/21 10:52:44;;;;;;;3.53;2.63;;;;;;;;;;5066841;28;20213;-88
2023/04/21 10:55:14;;;;;;;3.73;2.90;;;;;;;;;;5064810;28;20258;-88
2023/04/21 10:57:42;;;;;;;3.03;2.60;;;;;;;;;;5072822;28;20261;-88
2023/04/21 11:00:14;;;;;;;4.40;2.50;;;;;;;;;;5072571;28;20219;-87
2023/04/21 11:02:42;;;;;;;4.73;4.33;;;;;;;;;;5072502;28;20197;-88
2023/04/21 11:05:09;;;;;;;5.17;4.73;;;;;;;;;;5072465;28;20209;-88
2023/04/21 11:07:36;;;;;;;4.53;4.13;;;;;;;;;;5059764;28;20224;-88
2023/04/21 11:10:05;;;;;;;5.00;4.60;;;;;;;;;;5072864;28;20743;-88
2023/04/21 11:12:33;;;;;;;6.03;4.17;;;;;;;;;;5066518;28;20206;-89
2023/04/21 11:15:00;;;;;;;4.13;3.83;;;;;;;;;;5066018;28;20209;-88
2023/04/21 11:17:28;;;;;;;4.77;4.30;;;;;;;;;;5052519;28;20252;-88
2023/04/21 11:19:57;;;;;;;4.97;4.57;;;;;;;;;;5066077;28;20242;-88
2023/04/21 11:22:29;;;;;;;4.37;4.07;;;;;;;;;;5060312;28;20209;-88
2023/04/21 11:24:57;;;;;;;4.80;4.27;;;;;;;;;;5072211;28;20296;-88
2023/04/21 11:27:26;;;;;;;5.23;4.00;;;;;;;;;;5063955;28;20782;-88
2023/04/21 11:29:53;;;;;;;4.80;4.40;;;;;;;;;;5067823;28;20213;-88
2023/04/21 11:32:21;;;;;;;5.90;4.23;;;;;;;;;;5072334;28;20208;-88
2023/04/21 11:34:49;;;;;;;5.07;4.27;;;;;;;;;;5072417;28;20213;-88
2023/04/21 11:37:21;;;;;;;3.93;3.63;;;;;;;;;;5072280;28;20623;-88
2023/04/21 11:39:48;;;;;;;4.23;3.83;;;;;;;;;;5059283;28;20210;-88
2023/04/21 11:42:21;;;;;;;6.27;5.67;;;;;;;;;;5061590;28;20208;-89
2023/04/21 11:44:47;;;;;;;6.80;6.07;;;;;;;;;;5065803;28;20216;-88
2023/04/21 11:47:15;;;;;;;5.93;5.43;;;;;;;;;;5064200;28;20225;-89
2023/04/21 11:49:46;;;;;;;5.50;4.83;;;;;;;;;;5067017;28;20212;-88
2023/04/21 11:52:24;;;;;;;8.43;5.90;;;;;;;;;;5065155;28;20212;-88
2023/04/21 11:54:55;;;;;;;9.23;6.87;;;;;;;;;;5039995;28;20209;-88
2023/04/21 11:57:23;;;;;;;6.13;5.53;;;;;;;;;;5065518;28;20236;-88
2023/04/21 11:59:49;;;;;;;5.93;5.43;;;;;;;;;;5061064;28;20204;-88
2023/04/21 12:02:23;;;;;;;5.57;4.43;;;;;;;;;;5072101;28;20217;-89
2023/04/21 12:05:04;;;;;;;8.07;6.67;;;;;;;;;;5062419;28;20206;-88
2023/04/21 12:07:34;;;;;;;4.40;4.00;;;;;;;;;;5070721;28;20227;-88
2023/04/21 12:10:01;;;;;;;4.00;3.70;;;;;;;;;;5059825;28;20205;-88
2023/04/21 12:12:29;;;;;;;3.50;3.20;;;;;;;;;;5052081;28;20293;-88
2023/04/21 12:14:56;;;;;;;4.93;4.37;;;;;;;;;;5069249;28;20247;-87
2023/04/21 12:17:23;;;;;;;7.13;5.03;;;;;;;;;;5069465;28;20660;-88
2023/04/21 12:19:49;;;;;;;8.20;7.40;;;;;;;;;;5069562;28;20598;-89
2023/04/21 12:22:18;;;;;;;4.70;4.30;;;;;;;;;;5049105;28;20673;-88
2023/04/21 12:24:47;;;;;;;5.87;4.13;;;;;;;;;;5063779;28;20232;-88
2023/04/21 12:27:14;;;;;;;8.57;6.33;;;;;;;;;;5068348;28;20233;-89
2023/04/21 12:29:41;;;;;;;4.47;4.07;;;;;;;;;;5070645;28;20201;-88
2023/04/21 12:32:08;;;;;;;4.27;3.83;;;;;;;;;;5075748;28;20352;-88
2023/04/21 12:34:35;;;;;;;5.40;4.47;;;;;;;;;;5062081;28;20216;-88
2023/04/21 12:37:03;;;;;;;5.70;5.27;;;;;;;;;;5075905;28;20288;-88
2023/04/21 12:39:30;;;;;;;5.37;4.80;;;;;;;;;;5061998;28;20269;-88
2023/04/21 12:41:58;;;;;;;9.73;7.53;;;;;;;;;;5066569;28;20300;-88
2023/04/21 12:44:26;;;;;;;7.33;4.90;;;;;;;;;;5058191;28;20219;-88
2023/04/21 12:46:53;;;;;;;5.70;4.40;;;;;;;;;;5075046;28;20780;-88
2023/04/21 12:49:20;;;;;;;3.93;3.53;;;;;;;;;;5061145;28;20200;-87
2023/04/21 12:51:47;;;;;;;8.37;7.47;;;;;;;;;;5075224;28;20252;-87
2023/04/21 12:54:14;;;;;;;9.63;8.23;;;;;;;;;;5059695;28;20209;-88
2023/04/21 12:56:41;;;;;;;6.93;5.10;;;;;;;;;;5065042;28;20207;-87
2023/04/21 12:59:10;;;;;;;12.40;9.07;;;;;;;;;;5055861;28;20194;-88
2023/04/21 13:01:37;;;;;;;5.90;5.30;;;;;;;;;;5055634;28;20223;-87
2023/04/21 13:04:04;;;;;;;6.20;5.63;;;;;;;;;;5075151;28;20667;-88
2023/04/21 13:06:32;;;;;;;4.50;4.00;;;;;;;;;;5074889;28;20293;-88
2023/04/21 13:09:00;;;;;;;12.20;6.70;;;;;;;;;;5070746;28;20204;-88
2023/04/21 13:11:27;;;;;;;5.40;3.93;;;;;;;;;;5055173;28;20207;-88
2023/04/21 13:13:54;;;;;;;8.13;4.07;;;;;;;;;;5072935;28;20214;-88
2023/04/21 13:16:22;;;;;;;4.20;3.80;;;;;;;;;;5075634;28;20204;-89
2023/04/21 13:18:49;;;;;;;4.43;4.03;;;;;;;;;;5061229;28;20205;-88
2023/04/21 13:21:15;;;;;;;4.57;4.20;;;;;;;;;;5074859;28;20212;-88
2023/04/21 13:23:43;;;;;;;4.70;4.10;;;;;;;;;;5060944;28;20750;-89
2023/04/21 13:26:09;;;;;;;5.27;3.60;;;;;;;;;;5062758;28;20207;-88
2023/04/21 13:28:37;;;;;;;3.57;3.27;;;;;;;;;;5068352;28;20644;-88
2023/04/21 13:31:04;;;;;;;3.47;3.13;;;;;;;;;;5054908;28;20275;-88
2023/04/21 13:33:33;;;;;;;7.80;4.10;;;;;;;;;;5074273;28;20223;-88
2023/04/21 13:36:01;;;;;;;5.20;4.80;;;;;;;;;;5061558;28;20736;-88
2023/04/21 13:38:27;;;;;;;6.43;5.63;;;;;;;;;;5061527;28;20220;-88
2023/04/21 13:40:54;;;;;;;5.23;4.37;;;;;;;;;;5060979;28;20216;-88
2023/04/21 13:43:21;;;;;;;6.70;6.10;;;;;;;;;;5054569;28;20270;-88
2023/04/21 13:45:50;;;;;;;6.87;6.27;;;;;;;;;;5067900;28;20220;-89
2023/04/21 13:48:17;;;;;;;7.63;5.40;;;;;;;;;;5061879;28;20301;-88
2023/04/21 13:50:46;;;;;;;5.67;5.17;;;;;;;;;;5073877;28;20635;-88
2023/04/21 13:53:14;;;;;;;10.37;5.93;;;;;;;;;;5066893;28;20637;-89
2023/04/21 13:55:42;;;;;;;5.30;4.80;;;;;;;;;;5068839;28;20213;-88
2023/04/21 13:58:09;;;;;;;8.97;7.30;;;;;;;;;;5066279;28;20254;-88
2023/04/21 14:00:37;;;;;;;8.20;7.40;;;;;;;;;;5068985;28;20208;-88
2023/04/21 14:03:04;;;;;;;5.87;4.87;;;;;;;;;;5074356;28;20281;-88
2023/04/21 14:05:31;;;;;;;6.70;5.60;;;;;;;;;;5072396;28;20211;-89
2023/04/21 14:07:59;;;;;;;3.63;3.33;;;;;;;;;;5062904;28;20238;-88
2023/04/21 14:10:26;;;;;;;6.40;5.80;;;;;;;;;;5073371;28;20257;-88
2023/04/21 14:12:53;;;;;;;6.47;5.43;;;;;;;;;;5073926;28;20204;-88
2023/04/21 14:15:20;;;;;;;5.37;4.87;;;;;;;;;;5060632;28;20212;-88
2023/04/21 14:17:48;;;;;;;5.27;4.03;;;;;;;;;;5064350;28;20676;-89
2023/04/21 14:20:15;;;;;;;3.47;3.17;;;;;;;;;;5070821;28;20216;-87
2023/04/21 14:22:43;;;;;;;5.40;3.87;;;;;;;;;;5065754;28;20284;-88
2023/04/21 14:25:11;;;;;;;3.83;3.40;;;;;;;;;;5070181;28;20236;-88
2023/04/21 14:27:38;;;;;;;4.40;3.43;;;;;;;;;;5063126;28;20232;-88
2023/04/21 14:30:07;;;;;;;5.13;4.73;;;;;;;;;;5070940;28;20208;-89
2023/04/21 14:32:34;;;;;;;13.63;11.80;;;;;;;;;;5075966;28;20215;-89
2023/04/21 14:35:02;;;;;;;8.87;5.40;;;;;;;;;;5067994;28;20269;-89
2023/04/21 14:37:29;;;;;;;5.03;4.60;;;;;;;;;;5053492;28;20294;-88
2023/04/21 14:39:56;;;;;;;4.50;4.10;;;;;;;;;;5066785;28;20218;-88
2023/04/21 14:42:24;;;;;;;5.13;4.07;;;;;;;;;;5053614;28;20207;-89
2023/04/21 14:44:51;;;;;;;11.13;7.07;;;;;;;;;;5048286;28;20259;-88
2023/04/21 14:47:18;;;;;;;7.23;5.83;;;;;;;;;;5058601;28;20227;-89